Altenburg, Missouri
Current Conditions -  °F | °C
As of 1:52 PM on Sunday 21 Dec 2014 (Local Time) from KMDH Reporting Station
Overcast Overcast  
Wind Chill: 42°   Ceiling: 4800
Heat Index: 45°   Visibility: 10mi
Dew Point: 29°   Wind: 6mph
Humidity: 53%   Direction: 130°SE
Pressure: 30.1"   Gusts: NA
Location:  37.63°N, 89.59°W
Report Text: KMDH 211952Z AUTO 13005KT 10SM OVC048 07/M02 A3010 RMK AO2 SLP194 T00721017
Loading
Personal Weather Stations






























Interactive Weather Map New forecast layout! Learn more

10-Day Weather Forecast

Advertisements
Track Severe Weather on mobile